Time;durP1;ratioP1;P1;durP2;ratioP2;P2;SDS_P1;SDS_P2;PMS_P1;PMS_P2;Temp;Humidity;BMP_temperature;BMP_pressure;BME280_temperature;BME280_humidity;BME280_pressure;Samples;Min_cycle;Max_cycle;Signal;HPM_P1;HPM_P2
2022/03/21 00:02:03;;;;;;;;;71.50;54.50;;;;;-1.90;50.65;101828.13;6276421;20;2508639;-49
2022/03/21 00:04:32;;;;;;;;;78.50;57.00;;;;;-1.78;50.76;101831.06;6273533;20;2500424;-46
2022/03/21 00:06:59;;;;;;;;;67.50;51.50;;;;;-1.70;50.22;101820.72;6278652;20;2500756;-47
2022/03/21 00:09:28;;;;;;;;;83.67;53.67;;;;;-1.81;50.43;101828.38;6278858;20;2885870;-47
2022/03/21 00:11:57;;;;;;;;;75.00;53.00;;;;;-1.54;49.94;101828.09;6312468;20;2877341;-52
2022/03/21 00:14:25;;;;;;;;;69.00;54.00;;;;;-1.74;50.27;101818.84;6275703;20;2500252;-51
2022/03/21 00:16:53;;;;;;;;;61.00;46.00;;;;;-1.43;49.64;101821.31;6280052;20;2879475;-49
2022/03/21 00:19:21;;;;;;;;;65.00;49.00;;;;;-1.60;49.30;101818.31;6280685;20;2853420;-50
2022/03/21 00:21:49;;;;;;;;;72.00;53.00;;;;;-1.65;49.66;101816.44;6278312;20;2867976;-50
2022/03/21 00:24:18;;;;;;;;;80.00;57.00;;;;;-1.56;49.89;101824.53;6279768;20;2884772;-53
2022/03/21 00:26:45;;;;;;;;;71.00;57.00;;;;;-1.56;49.38;101820.16;6280085;20;2500375;-47
2022/03/21 00:29:14;;;;;;;;;66.00;49.50;;;;;-1.80;50.11;101822.22;6275461;20;2492003;-49
2022/03/21 00:31:44;;;;;;;;;71.50;46.00;;;;;-1.99;51.42;101819.16;6275585;20;2499280;-49
2022/03/21 00:34:13;;;;;;;;;59.00;49.00;;;;;-1.96;51.56;101820.09;6277671;20;2871115;-51
2022/03/21 00:36:41;;;;;;;;;66.67;48.00;;;;;-1.52;49.99;101820.25;6281119;20;2893093;-51
2022/03/21 00:39:16;;;;;;;;;71.50;51.00;;;;;-1.36;49.26;101814.44;6306748;20;2489895;-47
2022/03/21 00:41:45;;;;;;;;;69.67;51.67;;;;;-1.11;48.22;101819.38;6278427;20;2880451;-47
2022/03/21 00:44:14;;;;;;;;;66.00;52.50;;;;;-1.34;49.01;101820.66;6308102;20;2858620;-48
2022/03/21 00:46:43;;;;;;;;;59.50;48.50;;;;;-1.33;48.97;101812.75;6282113;20;2875426;-50
2022/03/21 00:49:13;;;;;;;;;73.50;53.00;;;;;-1.01;48.33;101820.44;6277409;20;2470034;-51
2022/03/21 00:51:41;;;;;;;;;64.00;50.00;;;;;-1.34;49.18;101810.09;6281097;20;2874233;-46
2022/03/21 00:54:10;;;;;;;;;68.00;52.00;;;;;-1.68;50.22;101814.63;6282545;20;2860713;-48
2022/03/21 00:56:39;;;;;;;;;69.00;47.00;;;;;-1.92;50.57;101809.69;6280946;20;2897269;-49
2022/03/21 00:59:07;;;;;;;;;69.50;52.00;;;;;-1.89;50.50;101814.13;6304538;20;2495059;-47
2022/03/21 01:01:36;;;;;;;;;73.67;54.33;;;;;-1.84;50.43;101817.78;6279402;20;2884632;-48
2022/03/21 01:04:05;;;;;;;;;75.00;53.00;;;;;-2.35;52.39;101810.38;6308628;20;2895090;-45
2022/03/21 01:06:35;;;;;;;;;67.40;49.00;;;;;-2.45;53.27;101802.25;6279525;20;3621177;-46
2022/03/21 01:09:03;;;;;;;;;60.50;50.00;;;;;-2.59;52.77;101801.00;6276680;20;2500305;-52
2022/03/21 01:11:31;;;;;;;;;73.00;57.00;;;;;-2.73;53.46;101802.38;6276579;20;2867989;-46
2022/03/21 01:13:59;;;;;;;;;70.00;52.00;;;;;-2.18;52.34;101806.44;6275923;20;2497261;-45
2022/03/21 01:16:27;;;;;;;;;72.50;54.00;;;;;-2.31;52.35;101799.09;6275324;20;2500272;-45
2022/03/21 01:18:55;;;;;;;;;71.00;55.00;;;;;-2.04;51.47;101802.38;6276658;20;2863935;-45
2022/03/21 01:21:23;;;;;;;;;81.50;60.00;;;;;-2.18;51.69;101795.91;6277039;20;2500414;-44
2022/03/21 01:23:52;;;;;;;;;69.50;54.00;;;;;-2.39;52.42;101796.25;6275821;20;2499232;-43
2022/03/21 01:26:20;;;;;;;;;59.00;48.00;;;;;-2.00;51.22;101800.72;6279264;20;2857543;-43
2022/03/21 01:28:50;;;;;;;;;69.25;50.00;;;;;-2.13;51.69;101794.28;6280172;20;3621080;-45
2022/03/21 01:31:17;;;;;;;;;66.50;53.00;;;;;-2.10;51.85;101804.88;6307922;20;2496181;-44
2022/03/21 01:33:45;;;;;;;;;68.00;54.50;;;;;-2.40;52.20;101794.47;6281782;20;2864043;-43
2022/03/21 01:36:14;;;;;;;;;70.67;52.00;;;;;-2.14;51.83;101803.00;6283685;20;3610685;-43
2022/03/21 01:38:42;;;;;;;;;77.00;51.50;;;;;-2.23;52.38;101792.25;6280865;20;2498181;-44
2022/03/21 01:41:11;;;;;;;;;83.00;57.00;;;;;-2.38;52.39;101790.13;6284500;20;2884624;-43
2022/03/21 01:44:02;;;;;;;;;75.67;57.00;;;;;-2.61;53.43;101794.78;6284173;20;3621099;-44
2022/03/21 01:46:32;;;;;;;;;70.00;52.00;;;;;-2.55;53.93;101788.84;6278574;20;2500254;-42
2022/03/21 01:49:01;;;;;;;;;70.00;52.00;;;;;-2.64;53.40;101792.09;6279481;20;2500276;-43
2022/03/21 01:51:31;;;;;;;;;45.50;44.00;;;;;-2.09;51.95;101793.47;6283666;20;2852414;-43
2022/03/21 01:56:49;;;;;;;;;65.00;48.50;;;;;-1.64;50.09;101798.03;6284174;20;2879548;-44
2022/03/21 01:59:19;;;;;;;;;77.50;58.00;;;;;-1.64;49.81;101795.38;6281066;20;2878363;-47
2022/03/21 02:01:49;;;;;;;;;71.50;55.00;;;;;-1.66;49.18;101793.56;6280507;20;2503400;-43
2022/03/21 02:04:17;;;;;;;;;67.50;51.50;;;;;-1.62;49.42;101798.94;6280808;20;2526333;-45
2022/03/21 02:06:46;;;;;;;;;65.00;51.00;;;;;-1.69;49.72;101807.56;6284443;20;2861887;-44
2022/03/21 02:09:14;;;;;;;;;70.50;53.00;;;;;-1.39;48.99;101801.22;6282792;20;2870074;-43
2022/03/21 02:11:42;;;;;;;;;76.00;58.00;;;;;-2.08;50.91;101791.72;6281242;20;2500304;-42
2022/03/21 02:14:10;;;;;;;;;64.50;52.50;;;;;-1.80;50.87;101801.16;6280856;20;2526295;-43
2022/03/21 02:16:40;;;;;;;;;67.00;53.00;;;;;-1.89;51.21;101790.44;6283094;20;2855476;-42
2022/03/21 02:19:29;;;;;;;;;74.33;59.33;;;;;-2.28;52.32;101792.16;6281784;20;3619006;-44
2022/03/21 02:22:24;;;;;;;;;71.50;57.50;;;;;-2.24;52.25;101795.72;6277145;20;2498184;-44
2022/03/21 02:25:31;;;;;;;;;67.00;50.00;;;;;-2.29;51.93;101786.84;6283665;20;2709646;-44
2022/03/21 02:28:08;;;;;;;;;75.00;57.50;;;;;-2.43;53.20;101786.50;6279018;20;2500373;-43
2022/03/21 02:30:45;;;;;;;;;79.00;59.00;;;;;-2.59;53.85;101786.97;6276558;20;2500265;-44
2022/03/21 02:33:18;;;;;;;;;86.00;63.00;;;;;-2.78;53.71;101785.59;6280418;20;2500317;-43
2022/03/21 02:35:50;;;;;;;;;77.00;57.00;;;;;-2.80;54.02;101787.28;6280146;20;2499452;-43
2022/03/21 02:38:19;;;;;;;;;66.50;48.00;;;;;-2.60;53.20;101786.06;6281424;20;2496104;-43
2022/03/21 02:40:48;;;;;;;;;70.00;53.00;;;;;-3.18;53.83;101789.75;6277870;20;2503394;-43
2022/03/21 02:43:17;;;;;;;;;70.60;53.20;;;;;-3.27;53.86;101793.00;6280212;20;3607536;-47
2022/03/21 02:45:46;;;;;;;;;69.60;55.00;;;;;-3.75;55.33;101783.72;6282630;20;3597193;-44
2022/03/21 02:48:16;;;;;;;;;74.20;54.80;;;;;-3.74;56.16;101787.22;6280558;20;3623310;-44
2022/03/21 02:51:00;;;;;;;;;70.50;54.00;;;;;-3.65;55.81;101792.75;6280665;20;2878543;-43
2022/03/21 02:53:32;;;;;;;;;80.60;56.40;;;;;-3.29;55.68;101789.44;6283693;20;3638778;-42
2022/03/21 02:56:00;;;;;;;;;76.50;54.00;;;;;-3.33;56.71;101791.09;6278718;20;2875329;-44
2022/03/21 02:58:28;;;;;;;;;60.50;48.50;;;;;-3.35;56.51;101792.75;6283060;20;2863097;-42
2022/03/21 03:01:11;;;;;;;;;77.20;58.40;;;;;-3.00;55.34;101790.28;6282966;20;3635633;-43
2022/03/21 03:03:40;;;;;;;;;72.00;54.00;;;;;-2.97;55.18;101797.34;6283740;20;3612722;-44
2022/03/21 03:06:09;;;;;;;;;75.50;59.00;;;;;-3.35;56.20;101790.13;6280004;20;2502492;-43
2022/03/21 03:08:42;;;;;;;;;77.00;58.00;;;;;-3.03;55.83;101795.41;6279438;20;2500518;-43
2022/03/21 03:11:11;;;;;;;;;81.50;60.00;;;;;-3.24;56.13;101793.06;6276268;20;2500341;-43
2022/03/21 03:13:40;;;;;;;;;66.67;54.33;;;;;-3.13;55.77;101788.16;6281658;20;3578574;-43
2022/03/21 03:16:10;;;;;;;;;73.33;48.00;;;;;-3.09;55.71;101787.38;6293495;20;2897354;-44
2022/03/21 03:18:38;;;;;;;;;75.00;54.00;;;;;-2.82;53.94;101783.72;6308773;20;2500366;-42
2022/03/21 03:21:06;;;;;;;;;75.40;56.20;;;;;-3.14;55.49;101786.34;6280935;20;3621244;-47
2022/03/21 03:23:37;;;;;;;;;67.80;51.60;;;;;-2.72;54.45;101785.75;6275590;20;3614836;-49
2022/03/21 03:26:05;;;;;;;;;74.00;54.00;;;;;-3.18;54.87;101781.88;6278311;20;2884653;-49
2022/03/21 03:28:33;;;;;;;;;69.50;54.50;;;;;-3.07;55.35;101796.19;6279434;20;2503442;-44
2022/03/21 03:31:18;;;;;;;;;66.50;50.00;;;;;-2.70;54.06;101781.44;6279525;20;2508848;-46
2022/03/21 03:33:48;;;;;;;;;66.50;51.50;;;;;-3.09;54.74;101779.50;6281792;20;2859627;-45
2022/03/21 03:36:17;;;;;;;;;70.00;54.00;;;;;-2.63;54.07;101785.09;6281613;20;2863816;-45
2022/03/21 03:38:47;;;;;;;;;67.00;50.00;;;;;-3.14;55.65;101781.09;6280972;20;2509012;-46
2022/03/21 03:41:17;;;;;;;;;73.67;51.67;;;;;-3.14;55.59;101779.34;6280911;20;2887846;-43
2022/03/21 03:43:45;;;;;;;;;53.00;44.00;;;;;-3.54;56.78;101779.94;6309797;20;2508716;-43
2022/03/21 03:46:16;;;;;;;;;70.67;51.33;;;;;-3.53;56.18;101781.72;6279724;20;2895323;-43
2022/03/21 03:48:47;;;;;;;;;70.00;49.00;;;;;-3.63;57.31;101784.94;6312997;20;2887800;-44
2022/03/21 03:51:17;;;;;;;;;63.00;52.00;;;;;-3.43;57.05;101781.16;6281657;20;2862834;-43
2022/03/21 03:53:45;;;;;;;;;68.00;52.00;;;;;-3.63;56.62;101792.81;6282482;20;2875281;-43
2022/03/21 03:56:13;;;;;;;;;75.00;54.50;;;;;-3.75;57.65;101790.69;6277940;20;2502379;-44
2022/03/21 03:58:42;;;;;;;;;77.00;55.00;;;;;-3.57;56.80;101788.63;6280522;20;2876285;-43
2022/03/21 04:01:10;;;;;;;;;71.00;54.00;;;;;-3.67;57.90;101789.19;6278030;20;2502366;-45
2022/03/21 04:03:47;;;;;;;;;70.00;49.00;;;;;-3.16;56.09;101791.59;6282605;20;2862892;-44
2022/03/21 04:06:24;;;;;;;;;67.00;52.00;;;;;-3.65;57.31;101791.88;6276867;20;2849257;-45
2022/03/21 04:08:53;;;;;;;;;59.50;47.00;;;;;-3.62;57.68;101787.59;6281259;20;2871101;-45
2022/03/21 04:11:22;;;;;;;;;53.00;43.00;;;;;-3.25;56.62;101793.94;6281544;20;2876285;-44
2022/03/21 04:13:50;;;;;;;;;56.50;45.50;;;;;-3.64;56.95;101793.66;6279080;20;2521094;-43
2022/03/21 04:16:18;;;;;;;;;71.00;48.00;;;;;-3.68;58.54;101800.56;6274974;20;2508616;-44
2022/03/21 04:18:48;;;;;;;;;60.50;48.50;;;;;-3.88;59.30;101792.03;6279371;20;2871132;-48
2022/03/21 04:21:28;;;;;;;;;69.67;51.00;;;;;-3.65;58.13;101798.00;6275960;20;2886741;-46
2022/03/21 04:23:57;;;;;;;;;75.00;53.00;;;;;-3.85;57.67;101799.13;6308397;20;2510891;-46
2022/03/21 04:26:27;;;;;;;;;72.33;52.00;;;;;-4.03;58.71;101794.19;6276541;20;2886767;-46
2022/03/21 04:28:55;;;;;;;;;56.00;48.50;;;;;-4.10;58.69;101794.84;6310521;20;2502441;-45
2022/03/21 04:31:24;;;;;;;;;58.00;48.00;;;;;-3.76;56.89;101799.44;6280819;20;2879591;-45
2022/03/21 04:33:54;;;;;;;;;76.60;54.60;;;;;-3.54;56.50;101801.84;6280313;20;3626256;-47
2022/03/21 04:36:23;;;;;;;;;69.50;55.00;;;;;-3.81;58.03;101795.78;6280609;20;2859621;-45
2022/03/21 04:38:52;;;;;;;;;75.80;53.40;;;;;-3.63;56.10;101803.31;6279388;20;3639819;-46
2022/03/21 04:41:20;;;;;;;;;75.00;55.50;;;;;-3.87;57.27;101800.81;6274234;20;2500382;-45
2022/03/21 04:43:48;;;;;;;;;74.00;58.00;;;;;-4.06;57.67;101804.59;6276386;20;2510806;-47
2022/03/21 04:46:18;;;;;;;;;76.50;55.50;;;;;-3.88;57.64;101805.16;6278643;20;2866951;-47
2022/03/21 04:48:47;;;;;;;;;72.60;53.20;;;;;-4.25;58.11;101803.97;6278768;20;3621138;-48
2022/03/21 04:51:15;;;;;;;;;78.20;56.20;;;;;-4.25;58.36;101809.22;6278911;20;3630862;-47
2022/03/21 04:53:43;;;;;;;;;75.00;57.50;;;;;-3.96;57.15;101806.66;6278243;20;2503540;-45
2022/03/21 04:56:12;;;;;;;;;73.00;56.00;;;;;-3.88;57.27;101806.91;6276979;20;2501314;-50
2022/03/21 04:58:41;;;;;;;;;87.00;60.00;;;;;-4.34;57.98;101806.31;6280984;20;3633543;-47
2022/03/21 05:01:09;;;;;;;;;77.00;60.50;;;;;-4.13;58.18;101811.38;6276288;20;2502392;-46
2022/03/21 05:03:38;;;;;;;;;76.80;57.80;;;;;-4.19;58.70;101819.03;6279923;20;3631620;-48
2022/03/21 05:06:07;;;;;;;;;80.50;57.00;;;;;-4.32;59.08;101815.09;6276357;20;2886743;-50
2022/03/21 05:08:36;;;;;;;;;86.00;57.40;;;;;-4.18;58.59;101819.94;6285530;20;3641905;-47
2022/03/21 05:11:05;;;;;;;;;84.67;59.33;;;;;-4.36;58.97;101820.22;6283488;20;2904532;-47
2022/03/21 05:13:35;;;;;;;;;82.40;58.60;;;;;-4.00;58.27;101816.19;6312971;20;3638790;-50
2022/03/21 05:16:08;;;;;;;;;75.00;56.00;;;;;-3.81;58.67;101820.28;6281704;20;2887774;-46
2022/03/21 05:18:36;;;;;;;;;84.00;60.50;;;;;-3.79;57.76;101821.22;6281047;20;2501466;-49
2022/03/21 05:21:06;;;;;;;;;82.00;56.00;;;;;-3.70;57.37;101819.72;6286162;20;2883614;-43
2022/03/21 05:32:00;;;;;;;;;93.33;66.33;;;;;-2.75;55.04;101833.00;6316966;20;3658551;-45
2022/03/21 05:37:16;;;;;;;;;86.00;66.50;;;;;-2.55;56.14;101837.06;6283916;20;2884648;-50
2022/03/21 05:42:32;;;;;;;;;91.00;63.00;;;;;-1.96;54.93;101854.31;6309911;20;2500362;-47
2022/03/21 05:45:02;;;;;;;;;90.33;61.67;;;;;-1.66;53.72;101846.25;6283162;20;3660627;-48
2022/03/21 05:47:30;;;;;;;;;88.00;65.50;;;;;-1.53;54.64;101857.97;6310814;20;2500232;-48
2022/03/21 05:50:01;;;;;;;;;84.50;61.00;;;;;-0.59;51.86;101855.53;6277256;20;2500247;-46
2022/03/21 05:52:29;;;;;;;;;80.00;58.00;;;;;-1.14;52.67;101855.31;6284647;20;2891941;-53
2022/03/21 05:54:59;;;;;;;;;80.00;60.00;;;;;-0.81;51.63;101854.25;6284641;20;2886838;-47
2022/03/21 05:57:28;;;;;;;;;67.00;49.00;;;;;-0.25;49.30;101857.94;6314044;20;2878638;-46
2022/03/21 06:02:44;;;;;;;;;70.00;50.00;;;;;1.24;46.05;101867.19;6284642;20;2882551;-45
2022/03/21 06:05:12;;;;;;;;;68.50;52.00;;;;;1.81;43.97;101860.72;6281414;20;2500256;-48
2022/03/21 06:07:40;;;;;;;;;68.50;50.00;;;;;2.26;43.19;101864.63;6282719;20;2500293;-46
2022/03/21 06:10:08;;;;;;;;;65.50;52.50;;;;;3.28;40.46;101866.97;6278137;20;2500240;-46
2022/03/21 06:12:37;;;;;;;;;68.00;48.50;;;;;4.52;37.96;101873.31;6283634;20;2888818;-50
2022/03/21 06:15:08;;;;;;;;;59.50;49.00;;;;;4.44;37.00;101881.28;6283990;20;2870236;-46
2022/03/21 06:17:39;;;;;;;;;63.00;49.00;;;;;4.10;36.94;101878.63;6284510;20;2865920;-47
2022/03/21 06:20:18;;;;;;;;;59.00;45.00;;;;;3.56;37.74;101877.69;6282722;20;2857592;-49
2022/03/21 06:22:46;;;;;;;;;58.50;45.00;;;;;3.81;37.11;101878.59;6285282;20;2858796;-48
2022/03/21 06:25:15;;;;;;;;;61.00;45.00;;;;;5.18;34.78;101876.66;6285452;20;2864902;-47
2022/03/21 06:27:44;;;;;;;;;51.50;42.00;;;;;6.21;33.24;101877.84;6281615;20;2858664;-49
2022/03/21 06:30:14;;;;;;;;;52.00;41.00;;;;;5.05;35.09;101874.94;6284406;20;2872172;-47
2022/03/21 06:32:43;;;;;;;;;56.50;47.00;;;;;4.38;36.04;101876.00;6312585;20;2862882;-47
2022/03/21 06:35:12;;;;;;;;;55.00;44.00;;;;;3.89;37.14;101881.28;6284095;20;2870197;-46
2022/03/21 06:37:42;;;;;;;;;58.00;48.00;;;;;4.21;36.97;101883.94;6280606;20;2858680;-46
2022/03/21 06:40:12;;;;;;;;;55.00;44.50;;;;;4.30;36.87;101883.09;6281182;20;2865878;-46
2022/03/21 06:42:40;;;;;;;;;52.50;45.00;;;;;4.03;37.54;101879.53;6281704;20;2851294;-49
2022/03/21 06:45:09;;;;;;;;;58.33;48.67;;;;;4.11;37.71;101877.78;6285143;20;2874205;-49
2022/03/21 06:47:37;;;;;;;;;64.50;45.00;;;;;3.87;37.94;101877.72;6309996;20;2492000;-48
2022/03/21 06:50:07;;;;;;;;;60.00;45.00;;;;;3.54;38.64;101879.44;6278371;20;2500303;-48
2022/03/21 06:52:39;;;;;;;;;63.33;47.67;;;;;4.28;38.18;101876.88;6287614;20;2884697;-48
2022/03/21 06:55:10;;;;;;;;;60.50;47.00;;;;;4.69;37.41;101881.28;6317290;20;2885689;-49
2022/03/21 06:57:40;;;;;;;;;57.00;45.50;;;;;4.78;37.55;101875.91;6287120;20;2862734;-48
2022/03/21 07:00:13;;;;;;;;;86.67;67.00;;;;;4.72;38.94;101892.78;6282519;20;2894088;-48
2022/03/21 07:02:43;;;;;;;;;66.00;52.50;;;;;4.65;38.58;101891.00;6319377;20;2866923;-47
2022/03/21 07:05:12;;;;;;;;;58.50;47.50;;;;;4.70;38.65;101888.34;6286345;20;2864824;-48
2022/03/21 07:07:42;;;;;;;;;52.67;41.33;;;;;4.70;38.08;101888.34;6286358;20;2873209;-48
2022/03/21 07:10:12;;;;;;;;;58.67;43.00;;;;;4.99;37.20;101886.50;6317098;20;3639811;-47
2022/03/21 07:12:40;;;;;;;;;58.50;42.00;;;;;4.92;37.34;101884.75;6316970;20;2884645;-51
2022/03/21 07:15:10;;;;;;;;;49.00;39.00;;;;;5.13;36.79;101885.56;6286897;20;2858753;-51
2022/03/21 07:17:42;;;;;;;;;41.00;32.33;;;;;5.18;36.68;101892.63;6285196;20;2869022;-49
2022/03/21 07:20:12;;;;;;;;;48.50;41.50;;;;;5.94;35.23;101899.38;6316946;20;2866955;-47
2022/03/21 07:22:41;;;;;;;;;43.00;36.50;;;;;6.61;34.33;101905.06;6285722;20;2883662;-48
2022/03/21 07:25:10;;;;;;;;;48.00;41.50;;;;;5.25;36.20;101896.19;6286249;20;2864836;-46
2022/03/21 07:27:45;;;;;;;;;43.33;34.67;;;;;5.96;35.58;101903.81;6282213;20;2881586;-48
2022/03/21 07:30:16;;;;;;;;;53.50;44.00;;;;;5.41;36.10;101905.88;6315845;20;2858693;-46
2022/03/21 07:32:45;;;;;;;;;54.00;44.00;;;;;5.66;36.18;101908.41;6286805;20;2870029;-50
2022/03/21 07:35:14;;;;;;;;;50.00;42.00;;;;;6.15;35.71;101903.66;6283534;20;2492944;-52
2022/03/21 07:37:50;;;;;;;;;50.67;41.67;;;;;5.62;35.86;101909.31;6287442;20;2871164;-48
2022/03/21 07:40:20;;;;;;;;;51.33;40.67;;;;;5.46;35.32;101909.41;6312918;20;2872199;-50
2022/03/21 07:42:50;;;;;;;;;58.00;41.00;;;;;6.26;35.56;101908.03;6313346;20;2875403;-48
2022/03/21 07:48:06;;;;;;;;;61.00;47.50;;;;;6.29;35.53;101913.34;6279255;20;2865897;-47
2022/03/21 07:50:36;;;;;;;;;38.00;28.33;;;;;6.29;35.25;101914.25;6284717;20;2872532;-47
2022/03/21 07:53:09;;;;;;;;;55.00;43.50;;;;;6.29;35.48;101913.34;6316295;20;2853404;-48
2022/03/21 07:55:37;;;;;;;;;60.00;45.00;;;;;6.09;36.37;101906.38;6283880;20;3608591;-48
2022/03/21 07:58:07;;;;;;;;;61.33;47.00;;;;;6.36;35.13;101907.94;6283236;20;2884731;-50
2022/03/21 08:00:36;;;;;;;;;58.50;44.00;;;;;6.58;34.69;101903.31;6315901;20;2855489;-46
2022/03/21 08:03:07;;;;;;;;;55.33;41.67;;;;;6.59;34.98;101907.75;6283259;20;2869062;-46
2022/03/21 08:05:36;;;;;;;;;61.00;48.50;;;;;6.39;34.29;101907.03;6315968;20;2868103;-48
2022/03/21 08:08:07;;;;;;;;;33.33;26.33;;;;;6.64;34.00;101906.84;6284397;20;3598158;-48
2022/03/21 08:10:36;;;;;;;;;48.67;38.00;;;;;7.54;33.10;101902.25;6313210;20;3620255;-47
2022/03/21 08:13:05;;;;;;;;;57.00;46.50;;;;;7.12;33.16;101907.22;6317300;20;2854836;-47
2022/03/21 08:15:36;;;;;;;;;56.00;45.00;;;;;7.70;32.69;101912.69;6284239;20;2862782;-46
2022/03/21 08:18:06;;;;;;;;;47.67;42.00;;;;;7.41;32.74;101913.06;6284667;20;2862932;-47
2022/03/21 08:20:38;;;;;;;;;39.67;37.00;;;;;7.34;32.97;101915.84;6313111;20;2858601;-49
2022/03/21 08:23:11;;;;;;;;;45.00;40.00;;;;;6.95;32.99;101907.38;6314511;20;2862838;-48
2022/03/21 08:25:46;;;;;;;;;60.50;44.00;;;;;7.40;32.90;101905.97;6313630;20;2874389;-46
2022/03/21 08:28:17;;;;;;;;;57.67;44.33;;;;;7.86;32.56;101909.81;6282103;20;2872189;-49
2022/03/21 08:30:46;;;;;;;;;55.50;46.50;;;;;8.21;31.42;101913.72;6313044;20;2848287;-45
2022/03/21 08:33:15;;;;;;;;;56.00;46.00;;;;;8.47;31.45;101908.84;6287469;20;2863775;-51
2022/03/21 08:35:44;;;;;;;;;60.00;46.00;;;;;8.40;31.79;101904.53;6284148;20;2857538;-49
2022/03/21 08:38:13;;;;;;;;;52.33;39.67;;;;;8.12;31.96;101910.28;6286017;20;2878401;-46
2022/03/21 08:40:43;;;;;;;;;58.33;45.00;;;;;7.82;32.74;101900.94;6312081;20;2868179;-46
2022/03/21 08:43:11;;;;;;;;;58.50;46.00;;;;;8.39;32.26;101899.16;6316113;20;2865897;-47
2022/03/21 08:45:41;;;;;;;;;54.33;41.00;;;;;8.42;31.95;101900.00;6284985;20;2871165;-45
2022/03/21 08:48:10;;;;;;;;;45.50;38.50;;;;;8.44;31.94;101891.97;6315564;20;2852845;-46
2022/03/21 08:50:39;;;;;;;;;57.50;46.00;;;;;8.40;31.76;101903.63;6282260;20;2851320;-45
2022/03/21 08:53:08;;;;;;;;;46.50;39.50;;;;;8.62;31.46;101890.78;6285514;20;2863979;-46
2022/03/21 08:55:37;;;;;;;;;45.50;40.00;;;;;9.44;30.91;101894.47;6284407;20;2861728;-46
2022/03/21 08:58:06;;;;;;;;;68.00;52.67;;;;;9.81;31.02;101896.34;6284213;20;2883580;-44
2022/03/21 09:00:36;;;;;;;;;51.33;41.33;;;;;9.51;30.36;101892.56;6313528;20;3611734;-45
2022/03/21 09:03:06;;;;;;;;;55.00;42.33;;;;;9.75;29.78;101885.78;6316932;20;3612736;-46
2022/03/21 09:05:35;;;;;;;;;47.50;40.00;;;;;10.00;30.01;101890.56;6315694;20;2863903;-44
2022/03/21 09:08:04;;;;;;;;;52.00;37.33;;;;;9.40;29.87;101884.75;6282606;20;3626282;-49
2022/03/21 09:10:33;;;;;;;;;45.50;37.00;;;;;9.32;30.52;101880.44;6314458;20;2859609;-46
2022/03/21 09:13:03;;;;;;;;;49.00;41.00;;;;;9.85;29.98;101887.31;6282730;20;2844023;-45
2022/03/21 09:15:34;;;;;;;;;41.00;32.67;;;;;9.59;30.09;101884.34;6284641;20;2854525;-45
2022/03/21 09:18:03;;;;;;;;;38.00;32.00;;;;;9.61;29.83;101877.13;6314298;20;3611735;-44
2022/03/21 09:20:33;;;;;;;;;47.67;39.33;;;;;10.28;28.25;101880.06;6313946;20;2873255;-44
2022/03/21 09:23:04;;;;;;;;;54.67;42.00;;;;;11.13;28.71;101881.38;6316394;20;3608641;-45
2022/03/21 09:25:34;;;;;;;;;39.00;34.67;;;;;10.58;28.51;101885.56;6282439;20;2848173;-47
2022/03/21 09:28:03;;;;;;;;;35.67;30.00;;;;;9.82;29.05;101876.66;6317209;20;3598118;-44
2022/03/21 09:30:33;;;;;;;;;40.00;35.00;;;;;10.93;28.14;101868.50;6279238;20;2846096;-44
2022/03/21 09:33:03;;;;;;;;;45.33;36.67;;;;;10.64;28.95;101872.88;6284324;20;3619995;-46
2022/03/21 09:35:34;;;;;;;;;39.00;36.33;;;;;10.80;28.03;101872.47;6316236;20;3592924;-44
2022/03/21 09:38:03;;;;;;;;;27.50;26.50;;;;;10.88;28.17;101874.00;6282355;20;2842941;-45
2022/03/21 09:40:32;;;;;;;;;46.00;38.00;;;;;10.85;27.71;101870.50;6277172;20;2856662;-45
2022/03/21 09:43:01;;;;;;;;;38.50;35.50;;;;;11.35;27.41;101860.13;6310096;20;2855472;-45
2022/03/21 09:45:31;;;;;;;;;47.00;37.00;;;;;12.11;28.24;101861.34;6281842;20;3606468;-44
2022/03/21 09:48:08;;;;;;;;;47.33;39.00;;;;;11.62;27.89;101850.31;6315291;20;3595066;-45
2022/03/21 09:50:42;;;;;;;;;48.67;38.67;;;;;11.11;29.63;101853.63;6279117;20;2870402;-45
2022/03/21 09:53:16;;;;;;;;;42.50;39.50;;;;;11.75;27.33;101849.00;6312247;20;2851330;-45
2022/03/21 09:55:46;;;;;;;;;22.00;19.00;;;;;11.34;28.08;101852.97;6286422;20;2485661;-48
2022/03/21 09:58:15;;;;;;;;;48.67;35.00;;;;;11.18;27.49;101850.72;6287750;20;3623126;-44
2022/03/21 10:00:47;;;;;;;;;53.67;39.67;;;;;11.27;27.09;101846.00;6316279;20;3631518;-44
2022/03/21 10:03:17;;;;;;;;;38.00;33.00;;;;;10.89;26.92;101846.19;6319172;20;2858730;-46
2022/03/21 10:05:49;;;;;;;;;47.33;36.00;;;;;10.75;27.65;101830.47;6321063;20;2872196;-44
2022/03/21 10:08:29;;;;;;;;;29.50;24.50;;;;;10.71;27.70;101831.47;6316308;20;2500279;-45
2022/03/21 10:11:05;;;;;;;;;62.50;51.00;;;;;11.38;26.80;101833.13;6284939;20;2859643;-48
2022/03/21 10:13:38;;;;;;;;;42.33;37.33;;;;;10.92;26.89;101823.72;6288963;20;2857561;-46
2022/03/21 10:16:16;;;;;;;;;41.67;37.00;;;;;11.42;26.24;101826.72;6318959;20;3611178;-49
2022/03/21 10:18:57;;;;;;;;;43.67;36.00;;;;;11.75;26.63;101822.09;6320778;20;3613764;-45
2022/03/21 10:21:29;;;;;;;;;40.67;35.33;;;;;12.17;26.22;101818.94;6321412;20;3606519;-45
2022/03/21 10:24:07;;;;;;;;;39.67;34.00;;;;;12.60;25.35;101816.56;6286074;20;3600261;-46
2022/03/21 10:26:44;;;;;;;;;45.33;35.33;;;;;11.64;25.81;101805.44;6319459;20;2868151;-45
2022/03/21 10:29:17;;;;;;;;;37.33;35.33;;;;;12.12;26.07;101809.28;6319573;20;3592976;-47
2022/03/21 10:31:52;;;;;;;;;31.50;28.00;;;;;11.21;25.92;101815.69;6287114;20;2846064;-47
2022/03/21 10:34:33;;;;;;;;;34.50;33.50;;;;;12.13;25.42;101806.50;6287361;20;2851281;-49
2022/03/21 10:37:10;;;;;;;;;25.00;20.50;;;;;11.92;25.65;101802.72;6287883;20;2826288;-46
2022/03/21 10:39:40;;;;;;;;;20.50;20.50;;;;;12.34;26.08;101799.50;6286611;20;2842983;-46
2022/03/21 10:42:10;;;;;;;;;35.00;28.33;;;;;12.42;25.25;101800.13;6284498;20;3608603;-45
2022/03/21 10:44:39;;;;;;;;;39.00;35.00;;;;;12.08;25.27;101792.31;6321140;20;3609628;-45
2022/03/21 10:47:09;;;;;;;;;29.00;26.67;;;;;12.05;25.60;101790.63;6284524;20;2847315;-46
2022/03/21 10:49:42;;;;;;;;;38.33;30.00;;;;;13.06;24.31;101794.19;6321250;20;3615835;-47
2022/03/21 10:52:21;;;;;;;;;35.33;33.00;;;;;12.92;24.61;101783.03;6287735;20;3606577;-45
2022/03/21 10:54:53;;;;;;;;;35.67;29.67;;;;;13.16;24.41;101789.31;6286596;20;3614827;-44
2022/03/21 10:57:36;;;;;;;;;36.67;29.33;;;;;12.63;24.47;101787.69;6318555;20;3611673;-45
2022/03/21 11:00:26;;;;;;;;;36.00;32.00;;;;;12.85;24.68;101785.09;6286572;20;3577337;-46
2022/03/21 11:03:05;;;;;;;;;29.67;28.00;;;;;12.86;25.34;101785.97;6284794;20;3609586;-46
2022/03/21 11:05:41;;;;;;;;;36.33;30.67;;;;;12.99;24.20;101775.59;6317118;20;3585630;-47
2022/03/21 11:08:15;;;;;;;;;37.00;31.67;;;;;12.12;23.99;101766.19;6285584;20;3621104;-45
2022/03/21 11:10:48;;;;;;;;;22.67;20.67;;;;;12.36;24.76;101765.31;6289226;20;3569678;-48
2022/03/21 11:13:20;;;;;;;;;32.00;30.00;;;;;12.55;24.40;101767.34;6318682;20;2851270;-45
2022/03/21 11:15:49;;;;;;;;;31.00;29.33;;;;;13.26;24.68;101765.56;6289206;20;3594028;-48
2022/03/21 11:18:21;;;;;;;;;30.33;28.00;;;;;12.93;23.12;101760.53;6285282;20;2846125;-47
2022/03/21 11:20:51;;;;;;;;;26.50;21.00;;;;;12.70;23.82;101762.28;6312455;20;2842049;-47
2022/03/21 11:23:21;;;;;;;;;27.67;24.67;;;;;12.80;23.54;101752.03;6287454;20;2852409;-44
2022/03/21 11:26:12;;;;;;;;;27.67;27.33;;;;;12.30;24.10;101746.69;6318056;20;3585739;-47
2022/03/21 11:29:11;;;;;;;;;30.33;27.67;;;;;12.70;23.42;101747.94;6285256;20;3597158;-45
2022/03/21 11:31:56;;;;;;;;;27.67;25.67;;;;;12.91;23.36;101741.72;6320262;20;3573165;-46
2022/03/21 11:34:50;;;;;;;;;26.00;24.00;;;;;12.91;22.98;101739.03;6287291;20;2731510;-46
2022/03/21 11:37:31;;;;;;;;;39.33;34.00;;;;;12.82;23.13;101733.09;6283115;20;2866024;-48